Time;durP1;ratioP1;P1;durP2;ratioP2;P2;SDS_P1;SDS_P2;PMS_P1;PMS_P2;Temp;Humidity;BMP_temperature;BMP_pressure;BME280_temperature;BME280_humidity;BME280_pressure;Samples;Min_cycle;Max_cycle;Signal;HPM_P1;HPM_P2
2022/10/14 00:00:18;;;;;;;15.82;8.98;;;;;;;12.50;100.00;97943.19;5060277;28;20167;-88
2022/10/14 00:02:43;;;;;;;15.02;8.48;;;;;;;12.59;100.00;97955.16;5059798;28;20062;-89
2022/10/14 00:05:09;;;;;;;19.92;8.43;;;;;;;12.57;100.00;97949.06;5059195;28;20086;-89
2022/10/14 00:07:36;;;;;;;16.17;8.75;;;;;;;12.46;100.00;97955.06;5066217;28;20032;-88
2022/10/14 00:10:02;;;;;;;15.50;8.95;;;;;;;12.38;100.00;97954.72;5058578;28;20025;-89
2022/10/14 00:12:29;;;;;;;18.33;8.93;;;;;;;12.41;100.00;97955.38;5075039;28;20024;-89
2022/10/14 00:14:55;;;;;;;14.40;8.20;;;;;;;12.43;100.00;97937.34;5063591;28;20035;-88
2022/10/14 00:17:21;;;;;;;13.23;8.30;;;;;;;12.55;100.00;97954.50;5068577;28;20107;-89
2022/10/14 00:19:47;;;;;;;16.27;7.85;;;;;;;12.43;100.00;97936.50;5056529;28;20066;-88
2022/10/14 00:22:12;;;;;;;14.50;8.07;;;;;;;12.32;100.00;97922.91;5063913;28;20104;-89
2022/10/14 00:24:39;;;;;;;17.17;8.10;;;;;;;12.40;100.00;97936.69;5075900;28;20020;-89
2022/10/14 00:27:05;;;;;;;15.52;8.05;;;;;;;12.38;100.00;97933.25;5055398;28;20078;-89
2022/10/14 00:29:30;;;;;;;18.60;9.65;;;;;;;12.36;100.00;97936.03;5062410;28;20031;-89
2022/10/14 00:31:56;;;;;;;22.30;11.45;;;;;;;12.25;100.00;97927.78;5065206;28;20487;-88
2022/10/14 00:34:21;;;;;;;23.27;11.70;;;;;;;12.25;100.00;97935.84;5062530;28;20385;-88
2022/10/14 00:36:47;;;;;;;20.80;11.00;;;;;;;12.28;100.00;97934.78;5071525;28;20034;-88
2022/10/14 00:39:13;;;;;;;18.85;11.10;;;;;;;12.35;100.00;97934.31;5060774;28;20024;-88
2022/10/14 00:41:40;;;;;;;21.33;10.57;;;;;;;12.29;100.00;97929.31;5065845;28;20087;-88
2022/10/14 00:44:26;;;;;;;19.27;10.00;;;;;;;12.28;100.00;97932.97;5060903;28;20498;-89
2022/10/14 00:46:52;;;;;;;17.02;9.60;;;;;;;12.35;100.00;97934.31;5055393;28;20054;-88
2022/10/14 00:49:21;;;;;;;18.48;9.57;;;;;;;12.39;100.00;97949.25;5073925;28;20055;-89
2022/10/14 00:52:11;;;;;;;21.50;9.98;;;;;;;12.27;100.00;97928.56;5082599;28;20075;-89
2022/10/14 00:54:41;;;;;;;17.10;9.88;;;;;;;12.23;100.00;97924.34;5083978;28;20042;-88
2022/10/14 00:57:06;;;;;;;20.10;9.93;;;;;;;12.28;100.00;97932.09;5070675;28;20024;-90
2022/10/14 00:59:32;;;;;;;17.58;9.43;;;;;;;12.27;100.00;97933.06;5075983;28;20042;-88
2022/10/14 01:01:58;;;;;;;20.17;10.52;;;;;;;12.18;100.00;97921.06;5088564;28;20096;-88
2022/10/14 01:04:24;;;;;;;16.33;9.20;;;;;;;12.14;100.00;97914.19;5072442;28;20411;-89
2022/10/14 01:06:56;;;;;;;18.92;9.95;;;;;;;12.24;100.00;97939.47;5074817;28;20502;-89
2022/10/14 01:09:42;;;;;;;14.35;8.75;;;;;;;12.26;100.00;97937.56;5080708;28;20027;-89
2022/10/14 01:12:19;;;;;;;16.13;8.95;;;;;;;12.22;100.00;97938.72;5077377;28;20111;-89
2022/10/14 01:15:17;;;;;;;13.85;8.25;;;;;;;12.15;100.00;97932.00;5071154;28;20488;-89
2022/10/14 01:17:55;;;;;;;15.55;8.60;;;;;;;12.17;100.00;97926.53;5077091;28;20230;-90
2022/10/14 01:20:23;;;;;;;14.63;8.80;;;;;;;12.04;100.00;97913.03;5080490;28;20104;-90
2022/10/14 01:23:20;;;;;;;16.50;8.80;;;;;;;12.09;100.00;97923.50;5070747;28;20443;-89
2022/10/14 01:26:06;;;;;;;17.83;8.77;;;;;;;12.07;100.00;97922.69;5077926;28;20483;-90
2022/10/14 01:28:38;;;;;;;16.20;9.15;;;;;;;11.98;100.00;97923.28;5058039;28;20029;-89
2022/10/14 01:31:06;;;;;;;32.03;15.80;;;;;;;11.96;100.00;97920.69;5081583;28;20024;-89
2022/10/14 01:33:37;;;;;;;25.38;12.57;;;;;;;11.80;100.00;97910.06;5063431;28;20506;-90
2022/10/14 01:36:47;;;;;;;18.20;9.70;;;;;;;11.90;100.00;97926.44;5050414;28;20024;-89
2022/10/14 01:39:20;;;;;;;17.17;9.05;;;;;;;11.75;100.00;97901.41;5081748;28;20083;-89
2022/10/14 01:41:52;;;;;;;17.58;10.15;;;;;;;11.78;100.00;97917.31;5060721;28;20470;-89
2022/10/14 01:44:20;;;;;;;18.00;10.50;;;;;;;11.77;100.00;97922.78;5065056;28;20028;-89
2022/10/14 01:46:52;;;;;;;19.25;11.20;;;;;;;11.69;100.00;97906.28;5065192;28;20025;-90
2022/10/14 01:49:27;;;;;;;19.30;10.55;;;;;;;11.67;100.00;97908.16;5077779;28;20112;-89
2022/10/14 01:51:57;;;;;;;17.50;10.02;;;;;;;11.72;100.00;97919.53;5083738;28;20039;-89
2022/10/14 01:54:27;;;;;;;17.40;9.90;;;;;;;11.61;100.00;97908.53;5073157;28;20128;-91
2022/10/14 01:56:53;;;;;;;18.55;9.10;;;;;;;11.68;100.00;97928.66;5083875;28;20029;-89
2022/10/14 01:59:20;;;;;;;17.83;9.52;;;;;;;11.63;100.00;97914.69;5061649;28;20512;-90
2022/10/14 02:01:46;;;;;;;15.75;8.50;;;;;;;11.63;100.00;97918.19;5062336;28;20477;-90
2022/10/14 02:04:14;;;;;;;18.42;9.80;;;;;;;11.56;100.00;97918.69;5059550;28;20032;-89
2022/10/14 02:06:42;;;;;;;22.90;10.05;;;;;;;11.60;100.00;97934.47;5072250;28;20042;-89
2022/10/14 02:09:20;;;;;;;15.52;9.27;;;;;;;11.42;100.00;97909.63;5062480;28;20063;-90
2022/10/14 02:11:59;;;;;;;24.30;9.57;;;;;;;11.43;100.00;97927.44;5083324;28;20031;-89
2022/10/14 02:14:36;;;;;;;18.33;9.65;;;;;;;11.51;100.00;97934.16;5072074;28;20032;-91
2022/10/14 02:17:37;;;;;;;17.92;9.77;;;;;;;11.51;100.00;97929.66;5080500;28;20564;-89
2022/10/14 02:20:13;;;;;;;18.25;9.77;;;;;;;11.48;100.00;97939.69;5063218;28;20028;-89
2022/10/14 02:22:45;;;;;;;21.55;10.23;;;;;;;11.49;100.00;97942.28;5075572;28;20462;-90
2022/10/14 02:25:38;;;;;;;20.75;10.32;;;;;;;11.49;100.00;97944.09;5088217;28;20108;-90
2022/10/14 02:28:04;;;;;;;;;;;;;;;11.48;100.00;97945.91;5065545;28;20042;-89
2022/10/14 02:30:32;;;;;;;20.33;10.18;;;;;;;11.37;100.00;97926.94;5062685;28;19921;-89
2022/10/14 02:32:59;;;;;;;26.85;10.95;;;;;;;11.38;100.00;97934.88;5070955;28;20079;-88
2022/10/14 02:35:25;;;;;;;19.50;10.18;;;;;;;11.31;100.00;97928.19;5072390;28;20471;-88
2022/10/14 02:37:51;;;;;;;24.00;11.32;;;;;;;11.40;100.00;97945.50;5070102;28;20024;-90
2022/10/14 02:40:27;;;;;;;28.08;11.10;;;;;;;11.38;100.00;97940.22;5065008;28;20024;-89
2022/10/14 02:42:53;;;;;;;25.55;10.95;;;;;;;11.27;100.00;97934.66;5048156;28;20512;-88
2022/10/14 02:45:19;;;;;;;23.85;10.60;;;;;;;11.20;100.00;97930.59;5072767;28;20013;-89
2022/10/14 02:47:44;;;;;;;16.88;10.23;;;;;;;11.21;100.00;97940.38;5062185;28;20032;-89
2022/10/14 02:50:10;;;;;;;20.48;11.82;;;;;;;11.27;100.00;97944.50;5059851;28;20059;-89
2022/10/14 02:52:36;;;;;;;23.13;11.38;;;;;;;11.33;100.00;97945.00;5061538;28;20105;-89
2022/10/14 02:55:01;;;;;;;24.48;12.80;;;;;;;11.27;100.00;97926.63;5077240;28;20036;-87
2022/10/14 02:57:27;;;;;;;23.92;12.00;;;;;;;11.32;100.00;97939.75;5062058;28;20033;-89
2022/10/14 02:59:53;;;;;;;23.90;10.82;;;;;;;11.30;100.00;97934.47;5066202;28;20499;-91
2022/10/14 03:02:18;;;;;;;31.75;13.77;;;;;;;11.22;100.00;97930.53;5067480;28;20085;-90
2022/10/14 03:04:44;;;;;;;26.92;13.07;;;;;;;11.19;100.00;97928.03;5063578;28;20457;-90
2022/10/14 03:07:09;;;;;;;21.05;12.43;;;;;;;11.10;100.00;97923.22;5058410;28;20020;-88
2022/10/14 03:09:35;;;;;;;22.10;12.13;;;;;;;11.08;100.00;97917.06;5065414;28;20035;-90
2022/10/14 03:12:00;;;;;;;20.73;11.25;;;;;;;11.26;100.00;97935.59;5065281;28;20093;-87
2022/10/14 03:14:26;;;;;;;21.85;10.50;;;;;;;11.13;100.00;97929.25;5066654;28;20450;-88
2022/10/14 03:16:52;;;;;;;21.48;10.73;;;;;;;11.13;100.00;97918.53;5068684;28;20078;-89
2022/10/14 03:19:17;;;;;;;15.07;8.75;;;;;;;11.16;100.00;97926.41;5063973;28;20020;-91
2022/10/14 03:21:43;;;;;;;22.05;10.05;;;;;;;11.24;100.00;97923.25;5070102;28;20484;-87
2022/10/14 03:24:08;;;;;;;15.27;9.55;;;;;;;11.19;100.00;97912.84;5060137;28;20519;-88
2022/10/14 03:26:34;;;;;;;15.95;9.65;;;;;;;11.36;100.00;97931.44;5068408;28;20101;-89
2022/10/14 03:29:00;;;;;;;19.17;10.40;;;;;;;11.36;100.00;97922.53;5062397;28;20030;-89
2022/10/14 03:31:25;;;;;;;19.35;9.23;;;;;;;11.43;100.00;97918.53;5077367;28;20396;-89
2022/10/14 03:33:51;;;;;;;25.63;10.43;;;;;;;11.41;100.00;97907.06;5066130;28;20070;-89
2022/10/14 03:36:16;;;;;;;17.98;9.00;;;;;;;11.47;100.00;97909.38;5060614;28;20043;-88
2022/10/14 03:38:42;;;;;;;16.33;9.45;;;;;;;11.49;100.00;97907.47;5056167;28;20103;-89
2022/10/14 03:41:08;;;;;;;29.00;10.52;;;;;;;11.30;100.00;97882.72;5091629;28;20131;-89
2022/10/14 03:43:33;;;;;;;18.45;9.93;;;;;;;11.38;100.00;97900.06;5066531;28;20047;-92
2022/10/14 03:45:59;;;;;;;28.13;9.63;;;;;;;11.48;100.00;97916.44;5063297;28;20034;-89
2022/10/14 03:48:26;;;;;;;22.83;11.15;;;;;;;11.44;100.00;97907.72;5074228;28;20052;-90
2022/10/14 03:50:52;;;;;;;24.98;12.73;;;;;;;11.35;100.00;97907.44;5060755;28;20094;-90
2022/10/14 03:53:17;;;;;;;22.30;11.95;;;;;;;11.24;100.00;97904.50;5096349;28;20024;-87
2022/10/14 03:55:43;;;;;;;23.10;13.05;;;;;;;11.24;100.00;97923.25;5062753;28;20035;-88
2022/10/14 03:58:10;;;;;;;35.38;14.02;;;;;;;11.07;100.00;97913.53;5058144;28;20047;-89
2022/10/14 04:00:35;;;;;;;25.67;13.25;;;;;;;11.02;100.00;97909.38;5077168;28;20096;-89
2022/10/14 04:03:01;;;;;;;23.65;10.60;;;;;;;10.87;100.00;97901.31;5066553;28;20126;-79
2022/10/14 04:05:32;;;;;;;21.55;10.15;;;;;;;10.85;100.00;97921.06;5068812;28;20063;-88
2022/10/14 04:07:58;;;;;;;19.65;11.48;;;;;;;10.72;100.00;97912.88;5084468;28;20024;-88
2022/10/14 04:10:24;;;;;;;24.23;11.25;;;;;;;10.64;100.00;97919.63;5062237;28;20028;-89
2022/10/14 04:12:50;;;;;;;25.15;11.98;;;;;;;10.51;100.00;97915.91;5061655;28;20093;-88
2022/10/14 04:15:16;;;;;;;26.13;11.18;;;;;;;10.53;100.00;97922.00;5068009;28;20046;-88
2022/10/14 04:17:41;;;;;;;20.17;11.55;;;;;;;10.47;100.00;97922.34;5062602;28;20036;-90
2022/10/14 04:20:07;;;;;;;30.35;11.85;;;;;;;10.46;100.00;97916.13;5056703;28;20440;-88
2022/10/14 04:22:33;;;;;;;25.27;12.40;;;;;;;10.41;100.00;97912.88;5064373;28;20027;-89
2022/10/14 04:24:58;;;;;;;24.42;11.88;;;;;;;10.58;100.00;97933.34;5072391;28;20028;-89
2022/10/14 04:27:24;;;;;;;44.72;14.35;;;;;;;10.50;100.00;97927.53;5061011;28;20036;-89
2022/10/14 04:29:50;;;;;;;34.33;14.50;;;;;;;10.56;100.00;97921.84;5057775;28;20121;-89
2022/10/14 04:32:16;;;;;;;28.27;13.38;;;;;;;10.68;100.00;97942.56;5061109;28;20028;-90
2022/10/14 04:34:41;;;;;;;25.98;13.52;;;;;;;10.63;100.00;97928.59;5062398;28;20075;-90
2022/10/14 04:37:07;;;;;;;32.50;14.68;;;;;;;10.61;100.00;97928.66;5055880;28;20098;-91
2022/10/14 04:39:33;;;;;;;22.70;12.40;;;;;;;10.79;100.00;97938.34;5059393;28;20037;-88
2022/10/14 04:41:58;;;;;;;21.13;11.90;;;;;;;10.77;100.00;97921.50;5055543;28;20109;-89
2022/10/14 04:44:24;;;;;;;32.40;12.57;;;;;;;10.93;100.00;97942.03;5061831;28;20039;-88
2022/10/14 04:46:49;;;;;;;28.85;14.77;;;;;;;10.88;100.00;97919.09;5062634;28;20029;-88
2022/10/14 04:49:15;;;;;;;29.23;15.05;;;;;;;10.99;100.00;97926.50;5069958;28;20077;-88
2022/10/14 04:51:41;;;;;;;36.92;16.20;;;;;;;11.00;100.00;97924.69;5051422;28;20039;-89
2022/10/14 04:54:07;;;;;;;35.55;13.45;;;;;;;11.01;100.00;97934.44;5069850;28;20419;-88
2022/10/14 04:56:32;;;;;;;24.92;12.32;;;;;;;11.06;100.00;97930.53;5089634;28;20020;-89
2022/10/14 04:58:58;;;;;;;26.90;13.20;;;;;;;11.03;100.00;97933.41;5080039;28;20460;-89
2022/10/14 05:01:24;;;;;;;29.60;14.70;;;;;;;11.03;100.00;97925.38;5063219;28;20033;-90
2022/10/14 05:03:50;;;;;;;28.88;12.88;;;;;;;11.19;100.00;97939.59;5075525;28;20028;-79
2022/10/14 05:06:16;;;;;;;34.72;13.80;;;;;;;11.17;100.00;97925.41;5071299;28;20024;-90
2022/10/14 05:08:42;;;;;;;46.35;16.48;;;;;;;11.29;100.00;97923.84;5064824;28;20471;-88
2022/10/14 05:11:10;;;;;;;43.50;17.23;;;;;;;11.40;100.00;97919.59;5075764;28;20028;-89
2022/10/14 05:13:35;;;;;;;52.33;21.45;;;;;;;11.56;100.00;97924.03;5071192;28;20039;-77
2022/10/14 05:16:02;;;;;;;46.17;21.13;;;;;;;11.52;100.00;97909.09;5081292;28;20483;-89
2022/10/14 05:18:27;;;;;;;45.35;20.55;;;;;;;11.75;100.00;97916.66;5052888;28;20032;-88
2022/10/14 05:20:53;;;;;;;53.05;17.80;;;;;;;11.74;100.00;97894.34;5063177;28;20121;-89
2022/10/14 05:23:19;;;;;;;51.15;22.13;;;;;;;11.77;100.00;97894.16;5069048;28;20028;-79
2022/10/14 05:25:45;;;;;;;49.10;23.55;;;;;;;12.00;100.00;97905.28;5072949;28;20024;-80
2022/10/14 05:28:10;;;;;;;46.95;20.10;;;;;;;12.23;100.00;97910.06;5068335;28;20083;-78
2022/10/14 05:30:36;;;;;;;51.05;23.10;;;;;;;12.30;100.00;97898.88;5083270;28;20036;-78
2022/10/14 05:33:01;;;;;;;38.17;17.08;;;;;;;12.52;100.00;97901.88;5089507;28;20103;-77
2022/10/14 05:35:27;;;;;;;37.67;17.45;;;;;;;12.82;100.00;97900.88;5086833;28;20032;-79
2022/10/14 05:37:55;;;;;;;37.47;16.08;;;;;;;12.88;100.00;97887.06;5079098;28;20036;-77
2022/10/14 05:40:21;;;;;;;33.72;18.35;;;;;;;13.40;100.00;97896.09;5067015;28;20041;-78
2022/10/14 05:42:46;;;;;;;42.47;19.35;;;;;;;14.00;100.00;97898.19;5061337;28;20102;-78
2022/10/14 05:45:12;;;;;;;34.50;14.52;;;;;;;14.35;100.00;97885.84;5081176;28;20120;-78
2022/10/14 05:47:37;;;;;;;27.80;14.52;;;;;;;15.01;100.00;97888.13;5082833;28;20056;-78
2022/10/14 05:50:03;;;;;;;32.15;15.93;;;;;;;15.46;100.00;97864.94;5059163;28;20504;-78
2022/10/14 05:52:30;;;;;;;27.35;14.88;;;;;;;15.60;100.00;97848.56;5069611;28;20032;-78
2022/10/14 05:54:56;;;;;;;27.55;13.18;;;;;;;15.97;99.69;97841.16;5062261;28;20101;-78
2022/10/14 05:57:22;;;;;;;31.35;13.90;;;;;;;16.32;96.75;97824.88;5065085;28;20500;-79
2022/10/14 05:59:47;;;;;;;25.05;13.73;;;;;;;16.62;94.09;97821.53;5069375;28;20036;-79
2022/10/14 06:02:16;;;;;;;32.95;15.52;;;;;;;17.49;90.63;97821.38;5058105;28;20047;-77
2022/10/14 06:04:41;;;;;;;37.58;14.93;;;;;;;17.95;85.18;97798.47;5066396;28;20028;-76
2022/10/14 06:07:09;;;;;;;29.73;13.45;;;;;;;17.70;84.56;97778.97;5066844;28;20040;-76
2022/10/14 06:09:35;;;;;;;36.08;14.27;;;;;;;17.56;85.04;97776.63;5073518;28;20031;-76
2022/10/14 06:12:01;;;;;;;31.80;15.48;;;;;;;18.15;83.05;97773.22;5077942;28;20437;-77
2022/10/14 06:14:26;;;;;;;37.15;16.90;;;;;;;18.47;79.97;97764.91;5086678;28;20035;-78
2022/10/14 06:16:52;;;;;;;34.05;14.32;;;;;;;18.31;80.27;97760.00;5063607;28;20032;-77
2022/10/14 06:19:21;;;;;;;37.83;16.30;;;;;;;18.75;79.19;97761.44;5078767;28;20023;-77
2022/10/14 06:21:47;;;;;;;35.10;19.90;;;;;;;18.50;79.77;97745.69;5063736;28;20038;-77
2022/10/14 06:24:12;;;;;;;34.53;18.00;;;;;;;18.60;80.19;97752.00;5067705;28;20058;-78
2022/10/14 06:26:38;;;;;;;32.10;18.42;;;;;;;18.75;78.78;97740.59;5078195;28;20016;-78
2022/10/14 06:29:03;;;;;;;33.45;16.45;;;;;;;18.88;78.19;97735.78;5066780;28;20025;-77
2022/10/14 06:31:29;;;;;;;33.05;16.15;;;;;;;18.94;77.35;97723.50;5059014;28;20484;-77
2022/10/14 06:33:55;;;;;;;25.30;14.95;;;;;;;18.58;78.52;97716.06;5079508;28;20464;-77
2022/10/14 06:36:20;;;;;;;25.80;14.13;;;;;;;18.38;79.17;97709.72;5068697;28;20090;-78
2022/10/14 06:38:46;;;;;;;24.92;13.88;;;;;;;18.46;77.82;97701.72;5067726;28;20029;-79
2022/10/14 06:41:11;;;;;;;29.45;15.00;;;;;;;18.54;76.76;97699.22;5052003;28;20057;-80
2022/10/14 06:43:37;;;;;;;38.10;15.48;;;;;;;19.00;76.04;97698.53;5075143;28;20028;-80
2022/10/14 06:46:04;;;;;;;43.85;16.15;;;;;;;19.39;73.81;97699.31;5075473;28;20497;-79
2022/10/14 06:48:30;;;;;;;26.40;13.32;;;;;;;19.85;72.03;97701.22;5053455;28;20520;-79
2022/10/14 06:50:58;;;;;;;24.77;12.75;;;;;;;20.29;69.60;97699.63;5068595;28;20051;-80
2022/10/14 06:53:25;;;;;;;29.77;13.18;;;;;;;20.64;68.04;97690.69;5067665;28;20029;-80
2022/10/14 06:55:59;;;;;;;21.10;11.50;;;;;;;21.12;65.21;97687.59;5069277;28;20481;-80
2022/10/14 06:58:25;;;;;;;16.88;9.55;;;;;;;20.68;65.64;97682.06;5067932;28;20033;-80
2022/10/14 07:00:50;;;;;;;18.63;9.05;;;;;;;21.00;64.22;97681.53;5052786;28;20029;-80
2022/10/14 07:03:17;;;;;;;17.75;9.13;;;;;;;21.28;62.41;97668.69;5058840;28;20558;-80
2022/10/14 07:05:42;;;;;;;18.27;8.80;;;;;;;21.94;61.02;97672.53;5074761;28;20113;-77
2022/10/14 07:08:08;;;;;;;13.15;8.38;;;;;;;22.71;57.80;97665.16;5066592;28;20028;-76
2022/10/14 07:10:33;;;;;;;20.17;8.95;;;;;;;23.71;55.00;97661.13;5079439;28;20063;-76
2022/10/14 07:12:59;;;;;;;25.15;14.40;;;;;;;23.64;54.81;97649.16;5060230;28;20404;-76
2022/10/14 07:15:25;;;;;;;15.35;7.40;;;;;;;22.76;55.64;97636.38;5078840;28;20553;-76
2022/10/14 07:17:53;;;;;;;10.55;7.50;;;;;;;21.95;57.69;97627.94;5080655;28;20111;-80
2022/10/14 07:20:19;;;;;;;29.60;8.45;;;;;;;22.65;56.14;97633.97;5057528;28;20020;-80
2022/10/14 07:22:47;;;;;;;16.35;7.47;;;;;;;23.55;53.87;97638.44;5057768;28;20040;-79
2022/10/14 07:25:15;;;;;;;12.20;6.47;;;;;;;24.02;51.73;97627.53;5052973;28;20033;-80
2022/10/14 07:27:40;;;;;;;14.02;7.65;;;;;;;24.54;50.88;97619.59;5058010;28;20093;-80
2022/10/14 07:30:06;;;;;;;15.27;7.00;;;;;;;23.95;51.69;97613.72;5057419;28;20112;-80
2022/10/14 07:32:35;;;;;;;12.85;7.05;;;;;;;24.51;50.85;97615.34;5060757;28;20415;-78
2022/10/14 07:35:01;;;;;;;23.35;6.70;;;;;;;25.06;49.07;97608.81;5080908;28;20036;-80
2022/10/14 07:37:26;;;;;;;16.13;6.65;;;;;;;24.73;48.74;97594.53;5054706;28;20029;-79
2022/10/14 07:39:52;;;;;;;12.38;5.70;;;;;;;24.99;47.94;97603.22;5051096;28;20115;-79
2022/10/14 07:42:18;;;;;;;13.48;5.63;;;;;;;25.55;46.49;97592.81;5075223;28;20048;-81
2022/10/14 07:44:44;;;;;;;81.00;9.73;;;;;;;25.14;46.65;97579.47;5081005;28;20403;-79
2022/10/14 07:47:10;;;;;;;10.77;5.47;;;;;;;25.07;46.15;97588.63;5064295;28;20027;-81
2022/10/14 07:49:35;;;;;;;17.70;5.88;;;;;;;24.75;43.85;97551.41;5088863;28;20031;-79
2022/10/14 07:52:01;;;;;;;12.75;4.47;;;;;;;23.81;45.12;97557.06;5070400;28;20683;-79
2022/10/14 07:54:28;;;;;;;7.22;4.43;;;;;;;24.47;42.94;97555.72;5069509;28;20495;-79
2022/10/14 07:56:54;;;;;;;11.77;4.53;;;;;;;25.66;41.12;97552.06;5073662;28;20024;-79
2022/10/14 07:59:20;;;;;;;7.05;3.88;;;;;;;25.67;41.03;97558.41;5073478;28;20108;-80
2022/10/14 08:01:47;;;;;;;7.10;4.32;;;;;;;27.15;38.97;97561.44;5075625;28;20024;-79
2022/10/14 08:04:12;;;;;;;9.85;4.47;;;;;;;25.41;40.72;97525.97;5060752;28;20036;-79
2022/10/14 08:06:38;;;;;;;11.90;5.55;;;;;;;26.31;39.67;97538.41;5067120;28;20477;-80
2022/10/14 08:09:05;;;;;;;9.98;4.82;;;;;;;27.03;38.44;97545.69;5058688;28;20028;-79
2022/10/14 08:11:30;;;;;;;19.60;6.35;;;;;;;27.40;36.94;97521.47;5055670;28;20055;-79
2022/10/14 08:13:58;;;;;;;8.15;4.50;;;;;;;26.81;37.25;97518.25;5076760;28;20590;-79
2022/10/14 08:16:26;;;;;;;12.45;4.50;;;;;;;26.65;37.41;97520.38;5066227;28;20501;-79
2022/10/14 08:18:53;;;;;;;7.07;3.75;;;;;;;26.06;38.09;97504.09;5083322;28;20483;-79
2022/10/14 08:21:20;;;;;;;6.90;3.70;;;;;;;26.70;36.84;97507.75;5073714;28;20032;-79
2022/10/14 08:23:46;;;;;;;9.95;4.10;;;;;;;27.51;36.03;97513.72;5083391;28;20036;-80
2022/10/14 08:26:21;;;;;;;6.65;4.15;;;;;;;28.63;35.15;97534.34;5086279;28;20016;-80
2022/10/14 08:28:48;;;;;;;7.28;4.13;;;;;;;28.84;34.34;97520.44;5074912;28;20413;-91
2022/10/14 08:31:14;;;;;;;9.75;4.47;;;;;;;28.22;35.38;97517.91;5057269;28;20152;-91
2022/10/14 08:33:40;;;;;;;8.70;4.30;;;;;;;28.91;33.75;97507.50;5063875;28;20111;-93
2022/10/14 08:36:06;;;;;;;16.63;4.82;;;;;;;28.42;33.88;97500.44;5077917;28;20114;-90
2022/10/14 08:38:31;;;;;;;9.93;3.90;;;;;;;28.98;33.59;97489.91;5078699;28;20543;-92
2022/10/14 08:41:17;;;;;;;11.23;4.07;;;;;;;29.65;31.65;97502.59;5079107;28;20050;-91
2022/10/14 08:44:01;;;;;;;8.35;4.05;;;;;;;30.74;30.39;97502.53;5072816;28;20475;-91
2022/10/14 08:46:35;;;;;;;7.95;4.13;;;;;;;29.37;31.87;97457.91;5055278;28;20029;-92
2022/10/14 08:49:17;;;;;;;11.43;4.03;;;;;;;29.18;32.14;97478.03;5067097;28;20024;-90
2022/10/14 08:51:44;;;;;;;7.17;3.63;;;;;;;28.38;32.96;97481.78;5063038;28;20052;-92
2022/10/14 08:54:14;;;;;;;9.02;3.70;;;;;;;27.81;33.50;97465.69;5062941;28;20063;-90
2022/10/14 08:56:41;;;;;;;6.22;3.53;;;;;;;28.43;33.01;97482.00;5090118;28;20052;-90
2022/10/14 08:59:12;;;;;;;9.93;3.70;;;;;;;29.21;32.17;97483.97;5094152;28;20024;-90
2022/10/14 09:02:12;;;;;;;5.80;3.47;;;;;;;30.65;30.69;97488.16;5069896;28;20126;-90
2022/10/14 09:04:38;;;;;;;13.15;4.35;;;;;;;30.86;29.69;97446.34;5072340;28;20092;-90
2022/10/14 09:07:03;;;;;;;16.52;4.30;;;;;;;29.00;32.40;97467.69;5065857;28;20389;-91
2022/10/14 09:09:36;;;;;;;18.83;5.35;;;;;;;30.02;30.94;97462.38;5076243;28;20032;-90
2022/10/14 09:12:08;;;;;;;16.35;4.78;;;;;;;29.33;31.48;97435.44;5065215;28;20062;-90
2022/10/14 09:14:40;;;;;;;15.18;4.72;;;;;;;28.71;32.71;97448.81;5077046;28;20418;-90
2022/10/14 09:17:21;;;;;;;7.07;3.55;;;;;;;26.11;35.39;97424.00;5080591;28;20036;-91
2022/10/14 09:20:15;;;;;;;6.15;3.88;;;;;;;25.46;36.96;97440.47;5079594;28;20085;-91
2022/10/14 09:22:41;;;;;;;10.15;3.40;;;;;;;25.72;37.11;97484.69;5057289;28;20072;-89
2022/10/14 09:25:25;;;;;;;8.85;3.30;;;;;;;25.87;36.27;97461.69;5073956;28;20028;-90
2022/10/14 09:27:50;;;;;;;7.68;3.67;;;;;;;26.55;35.96;97481.47;5061367;28;20037;-90
2022/10/14 09:30:17;;;;;;;18.38;3.88;;;;;;;25.68;36.58;97439.53;5067787;28;20472;-91
2022/10/14 09:32:49;;;;;;;5.95;3.53;;;;;;;26.34;36.35;97479.53;5064296;28;20792;-92
2022/10/14 09:35:36;;;;;;;6.80;3.60;;;;;;;26.13;35.99;97455.66;5056764;28;20025;-91
2022/10/14 09:38:02;;;;;;;25.52;7.78;;;;;;;25.64;36.96;97449.19;5066284;28;20020;-91
2022/10/14 09:40:29;;;;;;;11.57;5.00;;;;;;;24.84;38.93;97462.75;5059944;28;20432;-88
2022/10/14 09:43:09;;;;;;;8.52;4.00;;;;;;;24.69;38.82;97470.03;5071080;28;20041;-91
2022/10/14 09:46:06;;;;;;;4.07;3.00;;;;;;;24.61;38.59;97461.91;5062342;28;20035;-91
2022/10/14 09:48:50;;;;;;;5.18;3.40;;;;;;;25.18;38.19;97471.28;5072703;28;20118;-90
2022/10/14 09:51:27;;;;;;;5.03;2.97;;;;;;;26.02;36.65;97469.91;5038794;28;20033;-89
2022/10/14 09:54:03;;;;;;;5.32;2.97;;;;;;;26.07;35.93;97444.63;5052094;28;20484;-89
2022/10/14 09:56:36;;;;;;;4.82;2.80;;;;;;;27.53;34.97;97492.41;5073231;28;20036;-90
2022/10/14 09:59:03;;;;;;;5.18;3.63;;;;;;;28.10;33.40;97476.41;5079037;28;20024;-89
2022/10/14 10:01:37;;;;;;;4.28;3.13;;;;;;;29.19;31.96;97471.47;5078902;28;20028;-90
2022/10/14 10:04:23;;;;;;;6.72;3.30;;;;;;;29.47;31.48;97470.16;5089129;28;20120;-89
2022/10/14 10:06:53;;;;;;;6.55;2.78;;;;;;;30.15;30.57;97455.97;5068630;28;20027;-89
2022/10/14 10:09:20;;;;;;;8.25;3.17;;;;;;;30.83;30.23;97460.59;5077567;28;20503;-89
2022/10/14 10:11:46;;;;;;;7.32;3.10;;;;;;;31.14;29.52;97456.97;5093932;28;20032;-91
2022/10/14 10:14:22;;;;;;;4.63;2.90;;;;;;;30.03;30.49;97444.75;5076618;28;20491;-89
2022/10/14 10:17:10;;;;;;;4.53;3.20;;;;;;;29.97;30.02;97437.34;5060221;28;20553;-79
2022/10/14 10:19:51;;;;;;;6.05;3.10;;;;;;;28.33;32.17;97432.03;5079982;28;20028;-77
2022/10/14 10:22:30;;;;;;;12.75;3.17;;;;;;;27.08;34.18;97423.19;5065208;28;20051;-84
2022/10/14 10:25:05;;;;;;;6.05;3.33;;;;;;;26.53;34.85;97432.25;5062506;28;20124;-80
2022/10/14 10:27:36;;;;;;;6.30;3.40;;;;;;;24.72;37.14;97414.94;5079483;28;20081;-79
2022/10/14 10:30:31;;;;;;;5.17;3.17;;;;;;;24.28;38.47;97434.84;5080799;28;20032;-79
2022/10/14 10:33:17;;;;;;;11.35;3.65;;;;;;;23.82;39.29;97432.22;5070516;28;20039;-79
2022/10/14 10:36:01;;;;;;;18.73;5.60;;;;;;;23.32;40.32;97433.47;5087261;28;20091;-80
2022/10/14 10:38:48;;;;;;;11.27;3.83;;;;;;;22.87;41.13;97425.97;5076853;28;20027;-79
2022/10/14 10:41:39;;;;;;;11.55;3.90;;;;;;;22.50;42.08;97431.97;5079175;28;20052;-80
2022/10/14 10:44:28;;;;;;;9.65;3.50;;;;;;;22.50;42.35;97442.88;5076415;28;20035;-81
2022/10/14 10:47:16;;;;;;;8.27;3.03;;;;;;;22.75;41.87;97438.28;5075724;28;20100;-80
2022/10/14 10:50:20;;;;;;;11.25;3.38;;;;;;;22.52;42.26;97437.25;5079597;28;20042;-80
2022/10/14 10:53:00;;;;;;;10.43;3.22;;;;;;;22.33;43.58;97443.06;5064508;28;20047;-81
2022/10/14 10:55:54;;;;;;;5.43;3.38;;;;;;;22.09;44.00;97431.13;5113196;27;20113;-91
2022/10/14 10:58:26;;;;;;;8.98;5.45;;;;;;;21.98;44.44;97439.63;5066265;28;20337;-80
2022/10/14 11:01:30;;;;;;;27.02;15.70;;;;;;;21.48;45.23;97438.81;5077705;28;20063;-83
2022/10/14 11:04:14;;;;;;;6.80;3.45;;;;;;;21.16;45.55;97444.13;5080448;28;20032;-83
2022/10/14 11:12:44;;;;;;;9.55;3.53;;;;;;;22.06;44.09;97445.09;5068105;28;20043;-81
2022/10/14 11:15:31;;;;;;;10.38;3.10;;;;;;;22.36;43.97;97448.19;5073643;28;20548;-78
2022/10/14 11:18:13;;;;;;;11.05;3.42;;;;;;;23.37;41.84;97443.88;5074253;28;20116;-79
2022/10/14 11:21:03;;;;;;;6.93;3.20;;;;;;;23.26;41.56;97439.66;5068377;28;20371;-79
2022/10/14 11:23:47;;;;;;;10.20;2.50;;;;;;;22.75;42.89;97421.91;5077984;28;20511;-79
2022/10/14 11:26:59;;;;;;;11.88;3.40;;;;;;;23.34;42.32;97444.25;5067636;28;20024;-79
2022/10/14 11:30:00;;;;;;;8.23;3.60;;;;;;;23.38;42.29;97437.41;5056753;28;20419;-79
2022/10/14 11:32:53;;;;;;;8.55;3.53;;;;;;;23.40;41.94;97427.19;5085948;28;20066;-80
2022/10/14 11:35:30;;;;;;;21.17;4.75;;;;;;;23.52;41.60;97428.47;5075709;28;20517;-80
2022/10/14 11:38:23;;;;;;;9.18;4.72;;;;;;;23.01;43.20;97417.06;5078961;28;20424;-80
2022/10/14 11:41:16;;;;;;;10.77;4.20;;;;;;;22.38;43.80;97406.09;5080573;28;20032;-79